createdAt,value
2019-06-26T00:02:21.718Z,101435.18
2019-06-26T00:04:53.053Z,101431.59
2019-06-26T00:07:24.319Z,101435.23
2019-06-26T00:09:55.694Z,101433.91
2019-06-26T00:12:27.033Z,101431.68
2019-06-26T00:14:58.285Z,101430.36
2019-06-26T00:17:29.632Z,101430.81
2019-06-26T00:20:00.860Z,101427.69
2019-06-26T00:22:32.225Z,101427.27
2019-06-26T00:25:04.155Z,101429.52
2019-06-26T00:27:36.075Z,101424.14
2019-06-26T00:30:08.564Z,101425.47
2019-06-26T00:32:39.926Z,101427.72
2019-06-26T00:35:11.340Z,101426.37
2019-06-26T00:37:42.655Z,101420.97
2019-06-26T00:40:15.397Z,101421.91
2019-06-26T00:42:46.689Z,101418.34
2019-06-26T00:45:18.053Z,101419.23
2019-06-26T00:47:49.342Z,101412.97
2019-06-26T00:50:20.590Z,101405.77
2019-06-26T00:52:52.870Z,101407.59
2019-06-26T00:55:24.275Z,101404.91
2019-06-26T00:57:55.494Z,101414.35
2019-06-26T01:00:32.791Z,101416.61
2019-06-26T01:03:04.208Z,101419.34
2019-06-26T01:05:35.539Z,101416.66
2019-06-26T01:08:06.803Z,101419.34
2019-06-26T01:10:38.133Z,101420.67
2019-06-26T01:13:09.406Z,101421.14
2019-06-26T01:15:40.810Z,101416.20
2019-06-26T01:18:12.175Z,101416.66
2019-06-26T01:20:43.582Z,101423.40
2019-06-26T01:23:15.223Z,101421.16
2019-06-26T01:25:46.485Z,101417.55
2019-06-26T01:28:17.883Z,101422.52
2019-06-26T01:30:49.166Z,101422.97
2019-06-26T01:33:20.507Z,101427.47
2019-06-26T01:35:51.773Z,101427.92
2019-06-26T01:38:23.017Z,101423.41
2019-06-26T01:40:54.317Z,101418.95
2019-06-26T01:43:25.721Z,101423.87
2019-06-26T01:45:57.009Z,101424.31
2019-06-26T01:48:28.273Z,101427.45
2019-06-26T01:50:59.547Z,101426.13
2019-06-26T01:53:30.778Z,101423.87
2019-06-26T01:56:02.183Z,101422.09
2019-06-26T01:58:33.584Z,101421.62
2019-06-26T02:01:04.809Z,101426.59
2019-06-26T02:03:36.170Z,101427.91
2019-06-26T02:06:07.506Z,101422.53
2019-06-26T02:08:38.766Z,101429.70
2019-06-26T02:11:10.190Z,101430.16
2019-06-26T02:13:41.444Z,101424.77
2019-06-26T02:16:12.763Z,101417.57
2019-06-26T02:18:48.267Z,101415.80
2019-06-26T02:21:19.601Z,101420.69
2019-06-26T02:23:50.945Z,101417.09
2019-06-26T02:26:22.221Z,101418.91
2019-06-26T02:28:53.621Z,101419.80
2019-06-26T02:31:25.042Z,101410.81
2019-06-26T02:33:56.331Z,101412.60
2019-06-26T02:36:27.563Z,101416.64
2019-06-26T02:38:58.895Z,101409.01
2019-06-26T02:41:30.159Z,101413.97
2019-06-26T02:44:01.457Z,101414.41
2019-06-26T02:46:32.778Z,101413.95
2019-06-26T02:49:04.070Z,101413.51
2019-06-26T02:51:35.452Z,101419.77
2019-06-26T02:56:42.104Z,101410.81
2019-06-26T02:59:13.393Z,101415.74
2019-06-26T03:01:44.777Z,101414.84
2019-06-26T03:04:16.012Z,101414.81
2019-06-26T03:06:47.295Z,101418.41
2019-06-26T03:09:19.745Z,101422.45
2019-06-26T03:11:51.064Z,101427.38
2019-06-26T03:14:22.377Z,101426.47
2019-06-26T03:16:53.734Z,101423.34
2019-06-26T03:19:24.994Z,101427.81
2019-06-26T03:21:56.400Z,101427.82
2019-06-26T03:24:27.812Z,101431.38
2019-06-26T03:26:59.121Z,101439.93
2019-06-26T03:29:30.397Z,101433.64
2019-06-26T03:32:01.738Z,101446.19
2019-06-26T03:34:33.040Z,101452.92
2019-06-26T03:37:04.359Z,101452.48
2019-06-26T03:39:35.644Z,101448.41
2019-06-26T03:42:06.913Z,101442.16
2019-06-26T03:44:38.227Z,101448.41
2019-06-26T03:47:09.553Z,101449.76
2019-06-26T03:49:40.838Z,101445.29
2019-06-26T03:52:12.089Z,101441.25
2019-06-26T03:54:43.406Z,101440.81
2019-06-26T03:57:14.730Z,101441.69
2019-06-26T03:59:46.145Z,101444.38
2019-06-26T04:02:17.619Z,101438.56
2019-06-26T04:04:48.852Z,101443.94
2019-06-26T04:07:20.053Z,101442.59
2019-06-26T04:09:51.367Z,101436.30
2019-06-26T04:12:22.678Z,101434.52
2019-06-26T04:14:53.833Z,101439.91
2019-06-26T04:17:26.143Z,101432.70
2019-06-26T04:19:57.456Z,101437.21
2019-06-26T04:22:28.699Z,101436.30
2019-06-26T04:25:00.006Z,101436.74
2019-06-26T04:27:32.344Z,101436.77
2019-06-26T04:30:03.517Z,101437.21
2019-06-26T04:32:34.729Z,101438.55
2019-06-26T04:35:06.055Z,101437.68
2019-06-26T04:37:37.404Z,101433.64
2019-06-26T04:40:08.660Z,101436.77
2019-06-26T04:42:39.870Z,101437.67
2019-06-26T04:45:11.150Z,101432.32
2019-06-26T04:47:42.414Z,101434.09
2019-06-26T04:50:13.914Z,101432.78
2019-06-26T04:52:45.085Z,101430.55
2019-06-26T04:55:16.298Z,101433.23
2019-06-26T04:57:47.528Z,101440.44
2019-06-26T05:00:21.741Z,101437.30
2019-06-26T05:02:51.623Z,101439.07
2019-06-26T05:05:35.473Z,101443.57
2019-06-26T05:07:55.749Z,101442.69
2019-06-26T05:10:26.937Z,101444.05
2019-06-26T05:12:58.131Z,101447.20
2019-06-26T05:15:29.364Z,101450.83
2019-06-26T05:18:00.681Z,101452.16
2019-06-26T05:20:31.813Z,101454.40
2019-06-26T05:23:03.165Z,101449.94
2019-06-26T05:25:34.351Z,101451.70
2019-06-26T05:28:08.230Z,101460.72
2019-06-26T05:30:38.480Z,101456.21
2019-06-26T05:33:09.696Z,101454.41
2019-06-26T05:35:40.975Z,101456.64
2019-06-26T05:38:12.132Z,101455.73
2019-06-26T05:40:43.337Z,101450.79
2019-06-26T05:43:14.608Z,101452.58
2019-06-26T05:45:45.863Z,101448.14
2019-06-26T05:48:17.066Z,101453.48
2019-06-26T05:50:48.226Z,101457.09
2019-06-26T05:53:19.484Z,101465.18
2019-06-26T05:55:50.630Z,101461.53
2019-06-26T05:58:21.799Z,101457.48
2019-06-26T06:00:53.061Z,101461.05
2019-06-26T06:03:24.328Z,101471.83
2019-06-26T06:05:55.589Z,101468.21
2019-06-26T06:08:26.742Z,101470.45
2019-06-26T06:10:58.407Z,101470.91
2019-06-26T06:13:29.814Z,101467.72
2019-06-26T06:16:00.957Z,101476.23
2019-06-26T06:18:32.159Z,101479.81
2019-06-26T06:21:03.380Z,101475.73
2019-06-26T06:23:34.835Z,101473.87
2019-06-26T06:26:06.018Z,101472.92
2019-06-26T06:28:37.183Z,101478.75
2019-06-26T06:31:08.358Z,101475.58
2019-06-26T06:33:39.584Z,101475.50
2019-06-26T06:36:10.808Z,101483.97
2019-06-26T06:38:41.956Z,101481.63
2019-06-26T06:41:13.100Z,101483.34
2019-06-26T06:43:44.244Z,101485.95
2019-06-26T06:46:15.419Z,101486.74
2019-06-26T06:48:46.576Z,101485.30
2019-06-26T06:51:17.728Z,101493.72
2019-06-26T06:53:48.911Z,101498.56
2019-06-26T06:56:20.100Z,101497.11
2019-06-26T06:58:51.318Z,101498.86
2019-06-26T07:01:22.496Z,101492.41
2019-06-26T07:03:53.663Z,101500.39
2019-06-26T07:06:24.852Z,101498.95
2019-06-26T07:08:56.038Z,101499.27
2019-06-26T07:11:28.207Z,101495.08
2019-06-26T07:13:59.391Z,101493.77
2019-06-26T07:16:30.634Z,101491.98
2019-06-26T07:19:01.798Z,101491.05
2019-06-26T07:21:32.962Z,101491.11
2019-06-26T07:24:04.149Z,101494.00
2019-06-26T07:26:35.296Z,101504.13
2019-06-26T07:29:06.529Z,101491.48
2019-06-26T07:31:38.614Z,101501.81
2019-06-26T07:34:09.868Z,101499.97
2019-06-26T07:36:41.060Z,101506.70
2019-06-26T07:39:12.261Z,101509.80
2019-06-26T07:41:43.414Z,101510.16
2019-06-26T07:44:14.604Z,101502.83
2019-06-26T07:46:45.753Z,101514.45
2019-06-26T07:49:16.940Z,101518.02
2019-06-26T07:51:48.096Z,101512.07
2019-06-26T07:54:19.326Z,101516.49
2019-06-26T07:56:50.470Z,101517.78
2019-06-26T07:59:21.688Z,101515.04
2019-06-26T08:01:52.977Z,101518.11
2019-06-26T08:04:24.217Z,101523.47
2019-06-26T08:06:55.419Z,101516.58
2019-06-26T08:09:26.628Z,101521.03
2019-06-26T08:11:57.974Z,101518.25
2019-06-26T08:14:29.154Z,101523.64
2019-06-26T08:17:00.324Z,101527.61
2019-06-26T08:19:31.649Z,101527.96
2019-06-26T08:22:02.788Z,101531.48
2019-06-26T08:24:34.008Z,101534.05
2019-06-26T08:27:05.194Z,101539.37
2019-06-26T08:29:36.367Z,101538.80
2019-06-26T08:32:07.529Z,101544.58
2019-06-26T08:34:39.732Z,101544.91
2019-06-26T08:37:10.946Z,101542.50
2019-06-26T08:39:42.108Z,101543.70
2019-06-26T08:42:13.267Z,101546.75
2019-06-26T08:44:44.452Z,101547.58
2019-06-26T08:47:15.680Z,101547.92
2019-06-26T08:49:46.887Z,101550.59
2019-06-26T08:52:18.140Z,101551.01
2019-06-26T08:54:49.350Z,101539.22
2019-06-26T08:57:20.666Z,101552.36
2019-06-26T08:59:51.824Z,101550.46
2019-06-26T09:02:23.013Z,101555.78
2019-06-26T09:04:54.206Z,101554.83
2019-06-26T09:07:25.512Z,101558.38
2019-06-26T09:09:56.770Z,101558.78
2019-06-26T09:12:27.958Z,101563.23
2019-06-26T09:14:59.182Z,101566.33
2019-06-26T09:17:30.352Z,101561.75
2019-06-26T09:20:01.682Z,101567.11
2019-06-26T09:22:32.950Z,101562.98
2019-06-26T09:25:20.329Z,101561.99
2019-06-26T09:27:37.246Z,101560.55
2019-06-26T09:30:08.974Z,101562.77
2019-06-26T09:32:40.161Z,101565.81
2019-06-26T09:35:11.335Z,101557.60
2019-06-26T09:37:42.513Z,101555.25
2019-06-26T09:40:14.699Z,101547.89
2019-06-26T09:42:45.905Z,101554.11
2019-06-26T09:45:17.195Z,101554.02
2019-06-26T09:47:48.412Z,101553.88
2019-06-26T09:50:19.723Z,101551.06
2019-06-26T09:52:50.961Z,101554.09
2019-06-26T09:55:22.212Z,101553.51
2019-06-26T09:57:53.428Z,101552.41
2019-06-26T10:00:24.887Z,101554.08
2019-06-26T10:02:56.149Z,101553.13
2019-06-26T10:05:27.333Z,101553.03
2019-06-26T10:07:58.606Z,101559.78
2019-06-26T10:10:29.863Z,101566.13
2019-06-26T10:13:01.275Z,101562.86
2019-06-26T10:15:32.572Z,101558.67
2019-06-26T10:18:03.869Z,101558.11
2019-06-26T10:20:36.180Z,101562.52
2019-06-26T10:23:07.360Z,101557.92
2019-06-26T10:25:38.707Z,101556.91
2019-06-26T10:28:10.086Z,101562.71
2019-06-26T10:30:41.372Z,101559.43
2019-06-26T10:33:12.580Z,101570.58
2019-06-26T10:35:43.839Z,101568.20
2019-06-26T10:38:15.240Z,101572.20
2019-06-26T10:40:46.452Z,101568.50
2019-06-26T10:43:17.665Z,101556.67
2019-06-26T10:45:48.873Z,101561.06
2019-06-26T10:48:20.125Z,101566.91
2019-06-26T10:50:58.185Z,101574.07
2019-06-26T10:53:24.261Z,101572.61
2019-06-26T10:55:55.538Z,101566.19
2019-06-26T10:58:26.743Z,101577.95
2019-06-26T11:00:58.087Z,101566.09
2019-06-26T11:03:29.482Z,101565.52
2019-06-26T11:06:00.943Z,101565.41
2019-06-26T11:08:32.313Z,101560.36
2019-06-26T11:11:03.664Z,101566.21
2019-06-26T11:13:34.954Z,101560.66
2019-06-26T11:16:06.349Z,101556.45
2019-06-26T11:18:37.761Z,101552.76
2019-06-26T11:21:08.982Z,101549.13
2019-06-26T11:23:40.315Z,101545.33
2019-06-26T11:26:11.584Z,101545.33
2019-06-26T11:28:42.739Z,101551.06
2019-06-26T11:31:14.082Z,101551.89
2019-06-26T11:33:45.279Z,101553.19
2019-06-26T11:36:16.609Z,101551.72
2019-06-26T11:38:47.738Z,101559.22
2019-06-26T11:41:19.080Z,101557.30
2019-06-26T11:43:50.302Z,101548.13
2019-06-26T11:46:21.730Z,101550.39
2019-06-26T11:48:52.979Z,101543.52
2019-06-26T11:51:24.208Z,101557.05
2019-06-26T11:53:58.877Z,101550.21
2019-06-26T11:56:29.591Z,101548.73
2019-06-26T11:59:00.821Z,101552.65
2019-06-26T12:01:32.038Z,101552.08
2019-06-26T12:04:03.350Z,101553.02
2019-06-26T12:06:34.584Z,101550.25
2019-06-26T12:09:07.319Z,101552.98
2019-06-26T12:11:38.772Z,101544.09
2019-06-26T12:14:10.240Z,101550.98
2019-06-26T12:16:41.657Z,101545.63
2019-06-26T12:19:12.919Z,101542.95
2019-06-26T12:21:44.224Z,101539.33
2019-06-26T12:24:15.527Z,101539.41
2019-06-26T12:26:47.842Z,101549.88
2019-06-26T12:29:19.032Z,101537.81
2019-06-26T12:31:50.439Z,101533.75
2019-06-26T12:34:21.799Z,101539.64
2019-06-26T12:36:53.067Z,101533.59
2019-06-26T12:39:24.293Z,101535.37
2019-06-26T12:41:55.590Z,101536.16
2019-06-26T12:44:26.829Z,101527.44
2019-06-26T12:46:58.225Z,101525.14
2019-06-26T12:49:29.565Z,101519.88
2019-06-26T12:52:00.771Z,101519.88
2019-06-26T12:54:33.034Z,101521.77
2019-06-26T12:57:04.305Z,101521.77
2019-06-26T12:59:35.643Z,101524.04
2019-06-26T13:02:06.866Z,101517.61
2019-06-26T13:04:38.187Z,101517.61
2019-06-26T13:07:10.409Z,101526.07
2019-06-26T13:09:41.648Z,101526.07
2019-06-26T13:12:12.922Z,101525.55
2019-06-26T13:14:44.271Z,101529.22
2019-06-26T13:17:15.429Z,101523.23
2019-06-26T13:19:46.690Z,101503.69
2019-06-26T13:22:18.105Z,101521.16
2019-06-26T13:24:49.321Z,101521.01
2019-06-26T13:27:20.519Z,101521.01
2019-06-26T13:29:51.690Z,101524.20
2019-06-26T13:32:23.015Z,101520.57
2019-06-26T13:34:54.326Z,101526.56
2019-06-26T13:37:25.495Z,101526.56
2019-06-26T13:39:56.806Z,101511.50
2019-06-26T13:42:28.324Z,101514.17
2019-06-26T13:44:59.612Z,101501.36
2019-06-26T13:47:30.810Z,101501.36
2019-06-26T13:50:02.825Z,101518.28
2019-06-26T13:52:34.204Z,101524.69
2019-06-26T13:55:05.704Z,101524.69
2019-06-26T13:57:36.975Z,101519.09
2019-06-26T14:00:08.385Z,101504.84
2019-06-26T14:02:39.685Z,101517.80
2019-06-26T14:05:11.063Z,101514.53
2019-06-26T14:07:42.312Z,101522.30
2019-06-26T14:10:13.785Z,101520.53
2019-06-26T14:12:45.004Z,101510.96
2019-06-26T14:15:16.730Z,101515.53
2019-06-26T14:17:48.046Z,101509.66
2019-06-26T14:20:19.484Z,101510.15
2019-06-26T14:22:51.314Z,101510.80
2019-06-26T14:25:22.536Z,101516.80
2019-06-26T14:27:53.733Z,101515.00
2019-06-26T14:30:27.830Z,101509.22
2019-06-26T14:32:57.894Z,101508.41
2019-06-26T14:35:29.272Z,101507.58
2019-06-26T14:38:00.537Z,101506.30
2019-06-26T14:40:31.758Z,101502.70
2019-06-26T14:43:02.935Z,101504.09
2019-06-26T14:45:34.271Z,101495.05
2019-06-26T14:48:05.466Z,101499.59
2019-06-26T14:50:36.864Z,101491.39
2019-06-26T14:53:08.118Z,101498.09
2019-06-26T14:55:39.352Z,101504.94
2019-06-26T14:58:10.615Z,101487.66
2019-06-26T15:00:42.848Z,101488.44
2019-06-26T15:03:14.108Z,101490.39
2019-06-26T15:05:45.481Z,101491.38
2019-06-26T15:08:16.706Z,101487.50
2019-06-26T15:10:48.877Z,101473.09
2019-06-26T15:13:20.077Z,101486.88
2019-06-26T15:15:54.659Z,101487.62
2019-06-26T15:18:25.313Z,101486.48
2019-06-26T15:20:56.587Z,101481.78
2019-06-26T15:23:27.982Z,101487.49
2019-06-26T15:25:59.124Z,101480.08
2019-06-26T15:28:30.460Z,101474.55
2019-06-26T15:31:01.675Z,101472.21
2019-06-26T15:33:36.490Z,101468.61
2019-06-26T15:36:05.848Z,101477.68
2019-06-26T15:38:37.073Z,101464.10
2019-06-26T15:41:08.342Z,101458.27
2019-06-26T15:43:39.604Z,101466.53
2019-06-26T15:46:10.792Z,101463.94
2019-06-26T15:48:42.020Z,101475.41
2019-06-26T15:51:13.215Z,101461.67
2019-06-26T15:53:44.416Z,101471.44
2019-06-26T15:56:15.725Z,101470.30
2019-06-26T15:58:47.012Z,101462.38
2019-06-26T16:01:18.262Z,101463.17
2019-06-26T16:03:49.500Z,101476.72
2019-06-26T16:06:20.678Z,101468.28
2019-06-26T16:08:52.838Z,101461.20
2019-06-26T16:11:24.065Z,101472.39
2019-06-26T16:13:55.333Z,101461.23
2019-06-26T16:16:26.534Z,101465.08
2019-06-26T16:19:05.559Z,101468.06
2019-06-26T16:21:36.764Z,101468.06
2019-06-26T16:24:07.936Z,101476.78
2019-06-26T16:26:39.162Z,101480.13
2019-06-26T16:29:10.338Z,101462.95
2019-06-26T16:31:41.496Z,101478.91
2019-06-26T16:34:12.730Z,101477.28
2019-06-26T16:36:43.967Z,101477.28
2019-06-26T16:39:15.340Z,101483.47
2019-06-26T16:41:48.951Z,101482.60
2019-06-26T16:44:19.700Z,101488.67
2019-06-26T16:46:50.896Z,101489.90
2019-06-26T16:49:22.209Z,101479.47
2019-06-26T16:51:53.489Z,101479.47
2019-06-26T16:54:24.834Z,101491.77
2019-06-26T16:56:56.009Z,101483.56
2019-06-26T16:59:28.272Z,101483.56
2019-06-26T17:01:59.494Z,101480.47
2019-06-26T17:04:30.872Z,101497.61
2019-06-26T17:07:03.079Z,101499.98
2019-06-26T17:09:34.256Z,101508.29
2019-06-26T17:12:05.883Z,101497.56
2019-06-26T17:14:37.581Z,101510.75
2019-06-26T17:17:08.875Z,101505.86
2019-06-26T17:19:40.022Z,101503.55
2019-06-26T17:22:11.334Z,101503.55
2019-06-26T17:24:42.542Z,101517.61
2019-06-26T17:27:13.956Z,101517.61
2019-06-26T17:29:45.413Z,101519.44
2019-06-26T17:32:16.656Z,101522.33
2019-06-26T17:34:48.077Z,101524.48
2019-06-26T17:37:19.242Z,101533.65
2019-06-26T17:39:50.611Z,101529.22
2019-06-26T17:42:22.811Z,101532.92
2019-06-26T17:44:54.072Z,101538.31
2019-06-26T17:47:25.440Z,101542.30
2019-06-26T17:49:56.711Z,101543.59
2019-06-26T17:52:28.091Z,101553.13
2019-06-26T17:54:59.332Z,101547.80
2019-06-26T17:57:31.970Z,101544.97
2019-06-26T18:00:05.547Z,101552.06
2019-06-26T18:02:43.066Z,101550.99
2019-06-26T18:05:14.875Z,101555.23
2019-06-26T18:07:47.193Z,101555.84
2019-06-26T18:10:18.893Z,101563.23
2019-06-26T18:12:50.137Z,101564.41
2019-06-26T18:15:21.376Z,101558.77
2019-06-26T18:17:52.609Z,101565.73
2019-06-26T18:20:24.045Z,101569.98
2019-06-26T18:23:06.412Z,101576.48
2019-06-26T18:25:28.208Z,101577.09
2019-06-26T18:27:59.532Z,101577.64
2019-06-26T18:30:30.851Z,101584.54
2019-06-26T18:33:02.088Z,101590.14
2019-06-26T18:35:34.451Z,101594.80
2019-06-26T18:38:06.200Z,101591.39
2019-06-26T18:40:37.720Z,101597.06
2019-06-26T18:43:08.908Z,101600.92
2019-06-26T18:45:40.138Z,101603.91
2019-06-26T18:48:11.368Z,101609.53
2019-06-26T18:50:42.631Z,101615.11
2019-06-26T18:53:13.864Z,101618.00
2019-06-26T18:55:46.249Z,101618.12
2019-06-26T18:58:19.367Z,101622.78
2019-06-26T19:00:51.674Z,101633.34
2019-06-26T19:03:24.008Z,101641.20
2019-06-26T19:05:57.152Z,101641.93
2019-06-26T19:08:28.324Z,101648.61
2019-06-26T19:10:59.571Z,101648.00
2019-06-26T19:13:30.971Z,101646.44
2019-06-26T19:16:04.522Z,101642.08
2019-06-26T19:18:35.192Z,101644.02
2019-06-26T19:21:06.380Z,101651.85
2019-06-26T19:23:37.614Z,101647.94
2019-06-26T19:26:08.800Z,101661.70
2019-06-26T19:28:39.993Z,101656.06
2019-06-26T19:31:11.594Z,101672.06
2019-06-26T19:33:45.628Z,101672.17
2019-06-26T19:36:15.921Z,101682.18
2019-06-26T19:38:47.087Z,101684.98
2019-06-26T19:41:19.489Z,101681.84
2019-06-26T19:43:50.656Z,101684.13
2019-06-26T19:46:21.991Z,101688.67
2019-06-26T19:48:53.157Z,101690.06
2019-06-26T19:51:24.345Z,101693.27
2019-06-26T19:53:55.531Z,101696.54
2019-06-26T19:56:26.839Z,101699.88
2019-06-26T19:58:58.118Z,101702.22
2019-06-26T20:01:29.251Z,101701.37
2019-06-26T20:04:00.425Z,101707.75
2019-06-26T20:06:31.717Z,101703.28
2019-06-26T20:09:02.951Z,101702.05
2019-06-26T20:11:34.557Z,101702.71
2019-06-26T20:14:05.774Z,101708.66
2019-06-26T20:16:36.926Z,101712.73
2019-06-26T20:19:08.204Z,101715.48
2019-06-26T20:21:39.465Z,101720.46
2019-06-26T20:24:10.618Z,101720.48
2019-06-26T20:26:42.809Z,101728.16
2019-06-26T20:29:15.142Z,101739.48
2019-06-26T20:31:48.103Z,101746.74
2019-06-26T20:34:19.274Z,101744.50
2019-06-26T20:36:50.537Z,101746.77
2019-06-26T20:39:21.707Z,101743.66
2019-06-26T20:41:53.046Z,101736.91
2019-06-26T20:44:24.347Z,101737.42
2019-06-26T20:46:55.552Z,101741.09
2019-06-26T20:49:27.852Z,101749.75
2019-06-26T20:51:59.116Z,101756.08
2019-06-26T20:54:30.315Z,101754.32
2019-06-26T20:57:01.499Z,101756.14
2019-06-26T20:59:32.713Z,101757.09
2019-06-26T21:02:03.994Z,101758.48
2019-06-26T21:04:35.191Z,101755.80
2019-06-26T21:07:06.771Z,101761.69
2019-06-26T21:09:38.876Z,101755.40
2019-06-26T21:12:10.089Z,101766.70
2019-06-26T21:14:41.233Z,101756.81
2019-06-26T21:17:15.570Z,101761.32
2019-06-26T21:19:47.084Z,101762.69
2019-06-26T21:22:18.489Z,101758.64
2019-06-26T21:24:49.679Z,101767.23
2019-06-26T21:27:20.840Z,101770.23
2019-06-26T21:29:52.095Z,101776.50
2019-06-26T21:32:23.244Z,101775.31
2019-06-26T21:34:54.557Z,101781.19
2019-06-26T21:37:25.771Z,101785.73
2019-06-26T21:39:57.060Z,101778.12
2019-06-26T21:42:28.233Z,101786.23
2019-06-26T21:44:59.449Z,101786.70
2019-06-26T21:47:30.755Z,101787.16
2019-06-26T21:50:01.956Z,101800.20
2019-06-26T21:52:33.237Z,101797.97
2019-06-26T21:55:05.465Z,101807.87
2019-06-26T21:57:54.480Z,101807.89
2019-06-26T22:00:43.360Z,101812.39
2019-06-26T22:03:32.370Z,101815.08
2019-06-26T22:06:14.229Z,101818.22
2019-06-26T22:08:47.306Z,101818.15
2019-06-26T22:11:20.144Z,101816.78
2019-06-26T22:13:51.613Z,101822.16
2019-06-26T22:16:22.833Z,101826.66
2019-06-26T22:18:54.306Z,101824.81
2019-06-26T22:21:25.783Z,101833.34
2019-06-26T22:23:57.925Z,101829.27
2019-06-26T22:26:29.152Z,101831.02
2019-06-26T22:29:00.317Z,101833.63
2019-06-26T22:31:31.676Z,101832.67
2019-06-26T22:34:02.920Z,101842.05
2019-06-26T22:36:34.123Z,101838.39
2019-06-26T22:39:05.808Z,101841.51
2019-06-26T22:41:36.987Z,101846.20
2019-06-26T22:44:09.199Z,101852.06
2019-06-26T22:46:40.371Z,101858.55
2019-06-26T22:49:11.541Z,101852.17
2019-06-26T22:51:42.757Z,101848.02
2019-06-26T22:54:14.021Z,101856.91
2019-06-26T22:56:45.194Z,101858.16
2019-06-26T22:59:16.448Z,101863.46
2019-06-26T23:01:47.637Z,101870.10
2019-06-26T23:04:18.895Z,101867.69
2019-06-26T23:06:50.095Z,101867.61
2019-06-26T23:09:21.262Z,101876.84
2019-06-26T23:11:52.487Z,101870.79
2019-06-26T23:14:23.648Z,101871.05
2019-06-26T23:16:54.836Z,101875.83
2019-06-26T23:19:25.989Z,101877.54
2019-06-26T23:21:57.237Z,101884.30
2019-06-26T23:24:28.399Z,101885.22
2019-06-26T23:26:59.627Z,101894.21
2019-06-26T23:29:30.898Z,101892.44
2019-06-26T23:32:03.488Z,101895.11
2019-06-26T23:34:34.844Z,101894.50
2019-06-26T23:37:06.029Z,101900.69
2019-06-26T23:39:37.315Z,101902.41
2019-06-26T23:42:08.494Z,101904.55
2019-06-26T23:44:39.790Z,101916.55
2019-06-26T23:47:10.978Z,101911.14
2019-06-26T23:49:42.221Z,101920.92
2019-06-26T23:52:13.421Z,101929.80
2019-06-26T23:54:44.566Z,101934.23
2019-06-26T23:57:15.738Z,101933.20
2019-06-26T23:59:46.930Z,101933.98
